createdAt,value
2023-03-06T00:01:10.732Z,10.98
2023-03-06T00:03:38.772Z,11.00
2023-03-06T00:06:07.308Z,11.10
2023-03-06T00:08:36.704Z,11.50
2023-03-06T00:11:04.715Z,11.73
2023-03-06T00:13:34.378Z,10.32
2023-03-06T00:16:02.605Z,9.60
2023-03-06T00:18:30.417Z,9.27
2023-03-06T00:20:58.691Z,8.95
2023-03-06T00:23:27.608Z,8.93
2023-03-06T00:25:56.822Z,8.20
2023-03-06T00:28:24.637Z,7.20
2023-03-06T00:30:52.448Z,7.53
2023-03-06T00:33:20.295Z,7.35
2023-03-06T00:35:48.019Z,7.22
2023-03-06T00:38:16.045Z,7.25
2023-03-06T00:40:44.075Z,6.35
2023-03-06T00:43:13.623Z,6.25
2023-03-06T00:45:43.104Z,6.78
2023-03-06T00:48:12.055Z,6.25
2023-03-06T00:50:39.957Z,6.78
2023-03-06T00:53:07.930Z,6.40
2023-03-06T00:55:35.826Z,6.20
2023-03-06T00:58:03.682Z,6.18
2023-03-06T01:00:32.909Z,6.55
2023-03-06T01:03:00.774Z,6.57
2023-03-06T01:05:28.742Z,6.60
2023-03-06T01:07:56.639Z,6.00
2023-03-06T01:10:24.857Z,7.90
2023-03-06T01:12:52.741Z,6.32
2023-03-06T01:15:20.949Z,6.53
2023-03-06T01:17:53.938Z,6.32
2023-03-06T01:20:22.162Z,6.45
2023-03-06T01:22:50.397Z,6.03
2023-03-06T01:25:18.771Z,6.55
2023-03-06T01:27:46.724Z,6.50
2023-03-06T01:30:14.915Z,6.32
2023-03-06T01:32:43.036Z,6.72
2023-03-06T01:35:12.756Z,6.53
2023-03-06T01:37:41.079Z,6.25
2023-03-06T01:40:11.116Z,6.22
2023-03-06T01:42:39.143Z,6.72
2023-03-06T01:45:29.069Z,6.25
2023-03-06T01:47:56.945Z,5.97
2023-03-06T01:50:26.654Z,6.25
2023-03-06T01:52:58.588Z,6.15
2023-03-06T01:55:32.039Z,6.32
2023-03-06T01:58:04.345Z,6.78
2023-03-06T02:00:32.428Z,6.60
2023-03-06T02:03:07.347Z,6.95
2023-03-06T02:05:41.616Z,7.25
2023-03-06T02:08:12.444Z,6.75
2023-03-06T02:10:43.572Z,7.07
2023-03-06T02:13:11.765Z,7.05
2023-03-06T02:15:39.977Z,7.55
2023-03-06T02:18:07.882Z,7.95
2023-03-06T02:20:44.566Z,8.18
2023-03-06T02:23:22.337Z,8.02
2023-03-06T02:25:53.865Z,8.15
2023-03-06T02:28:24.386Z,8.95
2023-03-06T02:30:54.496Z,8.18
2023-03-06T02:33:25.480Z,8.48
2023-03-06T02:35:55.439Z,8.75
2023-03-06T02:38:26.111Z,7.85
2023-03-06T02:40:57.993Z,8.85
2023-03-06T02:43:32.635Z,8.25
2023-03-06T02:46:00.646Z,8.90
2023-03-06T02:48:28.598Z,9.43
2023-03-06T02:50:56.533Z,8.70
2023-03-06T02:53:24.747Z,8.70
2023-03-06T02:55:52.852Z,9.20
2023-03-06T02:58:23.267Z,9.35
2023-03-06T03:00:51.605Z,8.82
2023-03-06T03:03:21.169Z,9.05
2023-03-06T03:05:49.034Z,9.13
2023-03-06T03:08:28.021Z,10.73
2023-03-06T03:11:00.233Z,9.88
2023-03-06T03:13:34.071Z,10.05
2023-03-06T03:16:04.460Z,9.35
2023-03-06T03:18:33.059Z,9.63
2023-03-06T03:21:01.030Z,10.88
2023-03-06T03:23:29.551Z,10.30
2023-03-06T03:26:07.415Z,10.73
2023-03-06T03:28:38.907Z,10.32
2023-03-06T03:31:09.249Z,10.98
2023-03-06T03:33:37.469Z,11.65
2023-03-06T03:36:07.775Z,11.98
2023-03-06T03:38:39.644Z,11.77
2023-03-06T03:41:07.967Z,11.75
2023-03-06T03:43:37.915Z,12.25
2023-03-06T03:46:06.582Z,12.50
2023-03-06T03:48:35.010Z,12.95
2023-03-06T03:51:07.155Z,12.18
2023-03-06T03:53:37.850Z,11.10
2023-03-06T03:56:07.477Z,11.88
2023-03-06T03:58:42.323Z,11.77
2023-03-06T04:01:10.799Z,10.73
2023-03-06T04:03:38.858Z,11.50
2023-03-06T04:06:08.953Z,11.52
2023-03-06T04:08:37.700Z,9.13
2023-03-06T04:11:06.012Z,12.23
2023-03-06T04:13:34.162Z,12.45
2023-03-06T04:16:03.536Z,11.43
2023-03-06T04:18:33.694Z,11.68
2023-03-06T04:21:06.021Z,11.35
2023-03-06T04:23:34.574Z,12.45
2023-03-06T04:26:03.052Z,14.32
2023-03-06T04:28:30.986Z,14.88
2023-03-06T04:31:00.572Z,15.13
2023-03-06T04:33:30.598Z,15.73
2023-03-06T04:35:59.159Z,15.50
2023-03-06T04:38:30.755Z,15.00
2023-03-06T04:40:58.901Z,15.52
2023-03-06T04:43:27.038Z,15.95
2023-03-06T04:45:55.069Z,14.40
2023-03-06T04:48:22.969Z,15.18
2023-03-06T04:50:52.324Z,15.25
2023-03-06T04:53:21.353Z,15.15
2023-03-06T04:55:49.260Z,15.43
2023-03-06T04:58:17.206Z,14.48
2023-03-06T05:00:45.414Z,15.02
2023-03-06T05:03:14.487Z,15.60
2023-03-06T05:05:42.618Z,12.57
2023-03-06T05:08:15.304Z,13.68
2023-03-06T05:10:43.367Z,11.65
2023-03-06T05:13:11.369Z,14.07
2023-03-06T05:15:42.008Z,14.73
2023-03-06T05:18:09.919Z,14.75
2023-03-06T05:20:37.751Z,16.27
2023-03-06T05:23:05.559Z,15.60
2023-03-06T05:25:34.763Z,14.98
2023-03-06T05:28:02.924Z,11.63
2023-03-06T05:30:31.224Z,14.48
2023-03-06T05:32:59.329Z,15.68
2023-03-06T05:35:27.255Z,16.30
2023-03-06T05:37:55.588Z,14.77
2023-03-06T05:40:23.495Z,15.13
2023-03-06T05:42:52.844Z,15.40
2023-03-06T05:45:20.828Z,13.38
2023-03-06T05:47:48.737Z,16.13
2023-03-06T05:50:16.631Z,15.68
2023-03-06T05:52:44.728Z,16.50
2023-03-06T05:55:13.752Z,16.20
2023-03-06T05:57:41.674Z,17.15
2023-03-06T06:00:13.100Z,18.27
2023-03-06T06:02:41.137Z,15.48
2023-03-06T06:05:11.327Z,16.42
2023-03-06T06:07:40.882Z,14.75
2023-03-06T06:10:09.762Z,16.48
2023-03-06T06:12:38.100Z,16.05
2023-03-06T06:15:07.574Z,14.25
2023-03-06T06:17:36.912Z,17.35
2023-03-06T06:20:05.588Z,16.70
2023-03-06T06:22:36.600Z,18.88
2023-03-06T06:25:04.944Z,17.42
2023-03-06T06:27:33.041Z,17.63
2023-03-06T06:30:01.215Z,17.58
2023-03-06T06:32:29.349Z,17.73
2023-03-06T06:34:58.968Z,17.52
2023-03-06T06:37:27.017Z,19.63
2023-03-06T06:39:54.981Z,19.17
2023-03-06T06:42:36.924Z,18.92
2023-03-06T06:45:06.947Z,18.75
2023-03-06T06:47:37.002Z,19.08
2023-03-06T06:50:08.276Z,19.27
2023-03-06T06:52:36.227Z,18.98
2023-03-06T06:55:04.172Z,18.23
2023-03-06T06:57:32.031Z,18.98
2023-03-06T06:59:59.917Z,17.80
2023-03-06T07:02:27.947Z,19.50
2023-03-06T07:05:04.204Z,17.98
2023-03-06T07:07:36.412Z,18.63
2023-03-06T07:10:05.812Z,17.48
2023-03-06T07:12:35.025Z,17.95
2023-03-06T07:15:03.224Z,17.63
2023-03-06T07:17:31.192Z,16.70
2023-03-06T07:19:59.623Z,16.38
2023-03-06T07:22:29.086Z,16.67
2023-03-06T07:24:59.840Z,17.20
2023-03-06T07:27:27.878Z,15.70
2023-03-06T07:29:55.941Z,19.08
2023-03-06T07:32:24.011Z,17.30
2023-03-06T07:34:52.029Z,17.50
2023-03-06T07:37:20.052Z,17.23
2023-03-06T07:39:48.140Z,16.25
2023-03-06T07:42:17.458Z,17.55
2023-03-06T07:44:56.086Z,17.63
2023-03-06T07:47:24.057Z,17.70
2023-03-06T07:49:56.113Z,17.70
2023-03-06T07:52:24.378Z,17.55
2023-03-06T07:54:52.217Z,17.90
2023-03-06T07:57:21.517Z,18.13
2023-03-06T07:59:49.590Z,16.33
2023-03-06T08:02:17.715Z,16.77
2023-03-06T08:04:45.565Z,16.38
2023-03-06T08:07:13.668Z,16.00
2023-03-06T08:09:41.895Z,17.15
2023-03-06T08:12:10.426Z,15.13
2023-03-06T08:14:39.836Z,15.02
2023-03-06T08:17:07.830Z,13.57
2023-03-06T08:19:35.892Z,12.68
2023-03-06T08:22:05.623Z,12.40
2023-03-06T08:24:33.717Z,13.32
2023-03-06T08:27:02.103Z,12.63
2023-03-06T08:29:31.565Z,14.45
2023-03-06T08:32:01.600Z,14.90
2023-03-06T08:34:29.577Z,14.73
2023-03-06T08:36:57.447Z,16.55
2023-03-06T08:39:25.291Z,17.02
2023-03-06T08:41:53.146Z,17.33
2023-03-06T08:44:21.009Z,10.45
2023-03-06T08:46:48.928Z,16.48
2023-03-06T08:49:18.242Z,14.73
2023-03-06T08:51:46.113Z,17.05
2023-03-06T08:54:14.234Z,16.45
2023-03-06T08:56:42.211Z,15.90
2023-03-06T08:59:13.425Z,16.98
2023-03-06T09:01:42.047Z,14.50
2023-03-06T09:04:11.667Z,15.07
2023-03-06T09:06:43.341Z,11.73
2023-03-06T09:09:11.445Z,11.48
2023-03-06T09:11:39.733Z,11.88
2023-03-06T09:14:07.930Z,11.55
2023-03-06T09:16:36.044Z,11.10
2023-03-06T09:19:03.943Z,11.10
2023-03-06T09:21:32.179Z,10.13
2023-03-06T09:24:01.843Z,7.90
2023-03-06T09:26:43.356Z,8.60
2023-03-06T09:29:13.288Z,8.30
2023-03-06T09:31:41.678Z,10.48
2023-03-06T09:34:09.548Z,9.18
2023-03-06T09:36:53.270Z,8.43
2023-03-06T09:39:23.035Z,8.80
2023-03-06T09:41:51.416Z,8.80
2023-03-06T09:44:22.253Z,11.05
2023-03-06T09:47:16.107Z,11.70
2023-03-06T09:49:56.163Z,11.73
2023-03-06T09:52:41.697Z,11.50
2023-03-06T09:55:17.560Z,12.18
2023-03-06T10:00:25.026Z,12.90
2023-03-06T10:02:58.463Z,13.75
2023-03-06T10:05:30.018Z,12.27
2023-03-06T10:08:03.286Z,13.88
2023-03-06T10:10:42.027Z,13.90
2023-03-06T10:13:19.375Z,12.88
2023-03-06T10:15:49.205Z,13.13
2023-03-06T10:18:18.189Z,13.63
2023-03-06T10:20:50.697Z,13.15
2023-03-06T10:23:32.603Z,13.63
2023-03-06T10:26:04.226Z,10.80
2023-03-06T10:28:39.710Z,13.43
2023-03-06T10:31:16.459Z,13.35
2023-03-06T10:33:55.389Z,13.35
2023-03-06T10:36:27.016Z,13.07
2023-03-06T10:38:59.390Z,10.80
2023-03-06T10:41:29.782Z,12.82
2023-03-06T10:44:24.124Z,14.43
2023-03-06T10:46:54.572Z,12.37
2023-03-06T10:49:32.681Z,12.35
2023-03-06T10:52:03.206Z,12.13
2023-03-06T10:54:33.346Z,12.32
2023-03-06T10:57:20.380Z,11.50
2023-03-06T10:59:53.646Z,9.25
2023-03-06T11:02:31.572Z,11.50
2023-03-06T11:05:01.920Z,10.00
2023-03-06T11:07:31.351Z,9.05
2023-03-06T11:10:19.112Z,10.73
2023-03-06T11:13:02.745Z,9.15
2023-03-06T11:15:32.041Z,11.02
2023-03-06T11:18:04.254Z,12.02
2023-03-06T11:20:50.151Z,12.75
2023-03-06T11:23:22.844Z,12.60
2023-03-06T11:25:57.295Z,11.25
2023-03-06T11:28:29.628Z,11.68
2023-03-06T11:31:03.063Z,11.70
2023-03-06T11:33:36.576Z,12.35
2023-03-06T11:36:13.914Z,11.02
2023-03-06T11:38:49.052Z,11.00
2023-03-06T11:41:25.034Z,8.32
2023-03-06T11:44:01.964Z,11.00
2023-03-06T11:46:35.419Z,10.93
2023-03-06T11:49:14.854Z,11.90
2023-03-06T11:51:48.120Z,11.35
2023-03-06T11:54:16.247Z,11.95
2023-03-06T11:56:53.133Z,11.52
2023-03-06T11:59:49.172Z,11.73
2023-03-06T12:02:30.304Z,12.27
2023-03-06T12:05:11.165Z,12.10
2023-03-06T12:07:48.895Z,12.38
2023-03-06T12:10:23.300Z,11.82
2023-03-06T12:16:22.898Z,12.02
2023-03-06T12:18:58.625Z,11.10
2023-03-06T12:24:09.245Z,11.13
2023-03-06T12:26:52.333Z,12.88
2023-03-06T12:29:42.792Z,10.85
2023-03-06T12:32:29.024Z,11.77
2023-03-06T12:35:10.908Z,11.40
2023-03-06T12:37:53.333Z,11.68
2023-03-06T12:40:51.556Z,11.48
2023-03-06T12:43:44.428Z,12.63
2023-03-06T12:46:16.492Z,12.10
2023-03-06T12:48:49.626Z,12.23
2023-03-06T12:51:21.515Z,12.35
2023-03-06T12:53:50.972Z,12.27
2023-03-06T12:56:19.888Z,12.40
2023-03-06T12:58:50.959Z,11.90
2023-03-06T13:01:55.484Z,11.90
2023-03-06T13:04:49.082Z,11.10
2023-03-06T13:07:29.062Z,10.73
2023-03-06T13:10:15.131Z,11.57
2023-03-06T13:12:56.714Z,8.55
2023-03-06T13:15:39.797Z,10.48
2023-03-06T13:18:49.083Z,10.00
2023-03-06T13:22:01.178Z,10.95
2023-03-06T13:24:31.066Z,11.93
2023-03-06T13:27:01.304Z,11.55
2023-03-06T13:30:06.988Z,11.52
2023-03-06T13:32:37.457Z,10.02
2023-03-06T13:35:47.340Z,11.10
2023-03-06T13:38:38.274Z,9.77
2023-03-06T13:41:35.108Z,10.15
2023-03-06T13:44:07.342Z,10.55
2023-03-06T13:46:37.931Z,10.75
2023-03-06T13:49:14.733Z,10.43
2023-03-06T13:51:50.196Z,9.68
2023-03-06T13:54:31.505Z,9.60
2023-03-06T13:57:25.190Z,9.73
2023-03-06T14:00:35.113Z,9.32
2023-03-06T14:03:35.124Z,9.38
2023-03-06T14:06:03.108Z,9.70
2023-03-06T14:08:33.484Z,10.18
2023-03-06T14:11:08.687Z,10.60
2023-03-06T14:13:47.614Z,10.67
2023-03-06T14:16:22.265Z,9.77
2023-03-06T14:18:51.708Z,10.65
2023-03-06T14:21:30.785Z,13.45
2023-03-06T14:24:00.640Z,10.70
2023-03-06T14:26:32.933Z,12.00
2023-03-06T14:29:02.498Z,10.38
2023-03-06T14:31:33.805Z,10.63
2023-03-06T14:34:03.567Z,11.13
2023-03-06T14:36:35.701Z,10.98
2023-03-06T14:39:09.917Z,10.68
2023-03-06T14:41:39.918Z,11.05
2023-03-06T14:44:17.676Z,12.00
2023-03-06T14:46:45.894Z,12.07
2023-03-06T14:49:14.964Z,12.18
2023-03-06T14:51:45.126Z,11.90
2023-03-06T14:54:19.673Z,11.43
2023-03-06T14:56:53.315Z,12.07
2023-03-06T14:59:26.170Z,12.00
2023-03-06T15:01:59.396Z,11.00
2023-03-06T15:04:32.581Z,8.93
2023-03-06T15:07:00.964Z,10.63
2023-03-06T15:09:31.165Z,10.13
2023-03-06T15:12:03.350Z,9.98
2023-03-06T15:14:35.569Z,11.43
2023-03-06T15:17:21.719Z,11.45
2023-03-06T15:19:51.797Z,10.23
2023-03-06T15:22:27.932Z,9.68
2023-03-06T15:25:08.701Z,8.75
2023-03-06T15:27:38.923Z,9.73
2023-03-06T15:30:22.938Z,10.13
2023-03-06T15:32:51.309Z,9.68
2023-03-06T15:35:31.860Z,10.55
2023-03-06T15:38:00.654Z,10.43
2023-03-06T15:40:31.126Z,9.70
2023-03-06T15:43:00.781Z,9.63
2023-03-06T15:45:30.678Z,10.50
2023-03-06T15:47:58.601Z,10.30
2023-03-06T15:50:28.726Z,10.77
2023-03-06T15:52:56.694Z,10.68
2023-03-06T15:55:26.719Z,10.38
2023-03-06T15:57:58.001Z,10.95
2023-03-06T16:00:29.244Z,11.90
2023-03-06T16:02:58.043Z,11.63
2023-03-06T16:05:28.192Z,11.18
2023-03-06T16:07:56.484Z,10.52
2023-03-06T16:10:26.561Z,12.30
2023-03-06T16:12:58.150Z,13.05
2023-03-06T16:15:29.126Z,12.27
2023-03-06T16:17:57.241Z,12.73
2023-03-06T16:20:27.778Z,13.93
2023-03-06T16:22:55.835Z,12.60
2023-03-06T16:25:25.222Z,11.57
2023-03-06T16:27:56.711Z,12.65
2023-03-06T16:30:26.234Z,12.93
2023-03-06T16:32:55.485Z,13.05
2023-03-06T16:35:23.385Z,12.40
2023-03-06T16:37:51.282Z,13.68
2023-03-06T16:40:22.151Z,13.85
2023-03-06T16:42:52.731Z,13.13
2023-03-06T16:45:22.106Z,13.60
2023-03-06T16:47:50.533Z,12.63
2023-03-06T16:50:25.408Z,13.35
2023-03-06T16:52:54.827Z,12.00
2023-03-06T16:55:23.842Z,12.70
2023-03-06T16:57:52.498Z,16.40
2023-03-06T17:00:22.148Z,13.10
2023-03-06T17:02:50.417Z,12.93
2023-03-06T17:05:20.022Z,13.32
2023-03-06T17:07:50.213Z,13.13
2023-03-06T17:10:21.884Z,12.73
2023-03-06T17:12:50.397Z,12.80
2023-03-06T17:15:18.550Z,12.60
2023-03-06T17:17:46.499Z,12.93
2023-03-06T17:20:14.710Z,12.73
2023-03-06T17:22:42.715Z,13.18
2023-03-06T17:25:12.650Z,13.93
2023-03-06T17:27:40.548Z,11.80
2023-03-06T17:30:09.940Z,12.45
2023-03-06T17:32:40.779Z,13.48
2023-03-06T17:35:09.550Z,12.50
2023-03-06T17:37:37.796Z,13.30
2023-03-06T17:40:09.600Z,15.98
2023-03-06T17:42:38.808Z,18.02
2023-03-06T17:45:09.291Z,26.58
2023-03-06T17:47:37.152Z,21.58
2023-03-06T17:50:05.800Z,26.40
2023-03-06T17:52:33.772Z,17.60
2023-03-06T17:55:01.696Z,20.60
2023-03-06T17:57:29.689Z,29.92
2023-03-06T17:59:59.138Z,21.17
2023-03-06T18:02:27.001Z,23.70
2023-03-06T18:04:57.474Z,26.70
2023-03-06T18:07:26.595Z,33.97
2023-03-06T18:09:54.588Z,32.05
2023-03-06T18:12:22.434Z,38.03
2023-03-06T18:14:50.705Z,20.40
2023-03-06T18:17:20.012Z,26.08
2023-03-06T18:19:47.895Z,34.17
2023-03-06T18:22:15.921Z,49.33
2023-03-06T18:24:43.757Z,47.60
2023-03-06T18:27:11.690Z,24.35
2023-03-06T18:29:39.632Z,17.58
2023-03-06T18:32:09.175Z,17.58
2023-03-06T18:34:38.609Z,28.27
2023-03-06T18:37:06.725Z,26.67
2023-03-06T18:39:34.510Z,24.92
2023-03-06T18:42:03.139Z,17.50
2023-03-06T18:44:31.023Z,14.60
2023-03-06T18:46:58.838Z,21.80
2023-03-06T18:49:26.895Z,21.40
2023-03-06T18:51:56.211Z,24.23
2023-03-06T18:54:25.312Z,15.38
2023-03-06T18:56:53.263Z,17.10
2023-03-06T18:59:21.444Z,17.58
2023-03-06T19:01:49.855Z,15.93
2023-03-06T19:04:17.861Z,16.77
2023-03-06T19:06:45.728Z,15.55
2023-03-06T19:09:15.161Z,15.85
2023-03-06T19:11:45.510Z,16.50
2023-03-06T19:14:13.484Z,16.33
2023-03-06T19:16:41.666Z,17.15
2023-03-06T19:19:09.638Z,16.65
2023-03-06T19:21:37.514Z,17.05
2023-03-06T19:24:06.771Z,17.08
2023-03-06T19:26:36.209Z,17.58
2023-03-06T19:29:04.105Z,16.38
2023-03-06T19:31:32.120Z,17.17
2023-03-06T19:34:00.160Z,17.60
2023-03-06T19:36:33.554Z,17.08
2023-03-06T19:39:03.634Z,16.83
2023-03-06T19:41:32.039Z,15.75
2023-03-06T19:44:03.316Z,17.55
2023-03-06T19:46:31.726Z,16.90
2023-03-06T19:49:01.293Z,15.63
2023-03-06T19:51:29.219Z,16.13
2023-03-06T19:53:57.703Z,15.32
2023-03-06T19:56:27.573Z,14.95
2023-03-06T19:58:55.807Z,14.05
2023-03-06T20:01:26.690Z,12.57
2023-03-06T20:03:58.493Z,13.18
2023-03-06T20:06:28.063Z,13.07
2023-03-06T20:08:56.485Z,13.00
2023-03-06T20:11:25.740Z,12.30
2023-03-06T20:13:54.675Z,11.55
2023-03-06T20:16:22.538Z,12.02
2023-03-06T20:18:51.745Z,11.93
2023-03-06T20:21:21.471Z,21.02
2023-03-06T20:23:50.996Z,16.33
2023-03-06T20:26:19.018Z,12.77
2023-03-06T20:28:47.540Z,12.65
2023-03-06T20:31:18.506Z,11.13
2023-03-06T20:33:46.647Z,10.73
2023-03-06T20:36:18.059Z,11.52
2023-03-06T20:38:46.989Z,10.90
2023-03-06T20:41:15.706Z,10.93
2023-03-06T20:43:43.586Z,10.10
2023-03-06T20:46:13.225Z,10.73
2023-03-06T20:48:41.777Z,9.85
2023-03-06T20:51:16.472Z,10.20
2023-03-06T20:53:46.402Z,9.10
2023-03-06T20:56:16.153Z,8.32
2023-03-06T20:58:44.315Z,9.93
2023-03-06T21:01:19.615Z,7.60
2023-03-06T21:03:47.705Z,9.00
2023-03-06T21:06:16.025Z,9.98
2023-03-06T21:08:45.749Z,9.63
2023-03-06T21:11:14.170Z,8.48
2023-03-06T21:13:42.140Z,7.68
2023-03-06T21:16:12.699Z,9.20
2023-03-06T21:18:40.982Z,10.15
2023-03-06T21:21:10.113Z,9.02
2023-03-06T21:23:38.232Z,9.25
2023-03-06T21:26:07.776Z,9.95
2023-03-06T21:28:35.619Z,9.75
2023-03-06T21:31:04.119Z,11.95
2023-03-06T21:33:32.099Z,9.88
2023-03-06T21:36:00.319Z,10.65
2023-03-06T21:38:28.394Z,10.48
2023-03-06T21:40:57.044Z,10.50
2023-03-06T21:43:26.902Z,9.88
2023-03-06T21:45:58.373Z,11.20
2023-03-06T21:48:26.417Z,11.55
2023-03-06T21:50:54.433Z,11.45
2023-03-06T21:53:22.353Z,12.18
2023-03-06T21:55:50.302Z,12.32
2023-03-06T21:58:18.554Z,11.10
2023-03-06T22:00:48.004Z,12.60
2023-03-06T22:03:15.918Z,11.23
2023-03-06T22:05:43.948Z,11.68
2023-03-06T22:08:11.798Z,10.90
2023-03-06T22:10:39.857Z,12.43
2023-03-06T22:13:07.939Z,12.02
2023-03-06T22:15:36.003Z,11.82
2023-03-06T22:18:05.280Z,13.10
2023-03-06T22:20:33.231Z,12.40
2023-03-06T22:23:01.117Z,12.77
2023-03-06T22:25:31.213Z,12.48
2023-03-06T22:27:59.076Z,13.20
2023-03-06T22:30:27.126Z,11.75
2023-03-06T22:32:55.381Z,12.43
2023-03-06T22:35:25.105Z,12.18
2023-03-06T22:37:52.992Z,14.07
2023-03-06T22:40:21.013Z,13.73
2023-03-06T22:42:48.959Z,7.60
2023-03-06T22:45:17.116Z,11.00
2023-03-06T22:47:45.015Z,12.35
2023-03-06T22:50:13.370Z,13.32
2023-03-06T22:52:42.950Z,12.82
2023-03-06T22:55:11.420Z,12.73
2023-03-06T22:57:39.236Z,12.88
2023-03-06T23:00:09.014Z,13.75
2023-03-06T23:02:38.170Z,12.38
2023-03-06T23:05:06.418Z,11.98
2023-03-06T23:07:34.435Z,12.25
2023-03-06T23:10:03.683Z,11.32
2023-03-06T23:12:50.059Z,11.43
2023-03-06T23:15:37.283Z,11.35
2023-03-06T23:18:23.622Z,10.00
2023-03-06T23:21:12.239Z,8.88
2023-03-06T23:23:58.895Z,10.70
2023-03-06T23:26:30.284Z,10.70
2023-03-06T23:28:58.847Z,10.45
2023-03-06T23:31:29.391Z,10.70
2023-03-06T23:33:58.765Z,11.20
2023-03-06T23:36:27.124Z,11.00
2023-03-06T23:38:55.262Z,10.52
2023-03-06T23:41:24.825Z,10.10
2023-03-06T23:43:55.286Z,10.13
2023-03-06T23:46:23.766Z,10.50
2023-03-06T23:48:51.672Z,9.07
2023-03-06T23:51:21.517Z,10.48
2023-03-06T23:53:55.532Z,10.15
2023-03-06T23:56:24.216Z,9.52
2023-03-06T23:58:52.114Z,8.77
